createdAt,value
2023-07-28T00:00:22.802Z,87.49
2023-07-28T00:02:55.853Z,88.14
2023-07-28T00:04:49.049Z,88.45
2023-07-28T00:06:42.433Z,88.66
2023-07-28T00:08:35.766Z,89.26
2023-07-28T00:10:28.809Z,89.69
2023-07-28T00:12:23.196Z,90.01
2023-07-28T00:14:16.242Z,90.85
2023-07-28T00:16:10.368Z,90.93
2023-07-28T00:18:03.501Z,90.95
2023-07-28T00:19:56.525Z,90.82
2023-07-28T00:21:50.598Z,91.24
2023-07-28T00:23:44.158Z,91.80
2023-07-28T00:25:37.106Z,91.95
2023-07-28T00:27:30.157Z,91.85
2023-07-28T00:29:23.211Z,91.34
2023-07-28T00:31:16.406Z,91.05
2023-07-28T00:33:09.620Z,90.92
2023-07-28T00:35:04.917Z,91.10
2023-07-28T00:36:59.526Z,90.93
2023-07-28T00:38:52.554Z,90.69
2023-07-28T00:40:45.628Z,90.95
2023-07-28T00:42:39.589Z,90.51
2023-07-28T00:44:32.628Z,90.69
2023-07-28T00:46:26.251Z,90.37
2023-07-28T00:48:21.697Z,90.44
2023-07-28T00:50:15.189Z,90.18
2023-07-28T00:52:09.386Z,89.98
2023-07-28T00:54:03.636Z,89.80
2023-07-28T00:55:57.307Z,89.54
2023-07-28T00:57:51.769Z,89.63
2023-07-28T00:59:45.029Z,89.59
2023-07-28T01:01:38.558Z,89.70
2023-07-28T01:03:32.555Z,89.52
2023-07-28T01:05:33.440Z,89.49
2023-07-28T01:07:54.031Z,89.77
2023-07-28T01:10:08.184Z,89.64
2023-07-28T01:12:02.719Z,89.55
2023-07-28T01:13:55.766Z,89.54
2023-07-28T01:15:49.463Z,89.66
2023-07-28T01:17:43.597Z,90.08
2023-07-28T01:19:37.121Z,90.23
2023-07-28T01:21:33.053Z,90.53
2023-07-28T01:23:45.667Z,90.34
2023-07-28T01:26:08.649Z,90.98
2023-07-28T01:28:02.662Z,90.79
2023-07-28T01:29:55.797Z,90.84
2023-07-28T01:31:49.143Z,91.40
2023-07-28T01:33:42.184Z,91.61
2023-07-28T01:35:41.564Z,91.63
2023-07-28T01:37:34.743Z,91.64
2023-07-28T01:39:27.795Z,92.17
2023-07-28T01:41:20.847Z,92.27
2023-07-28T01:43:14.299Z,93.09
2023-07-28T01:45:08.170Z,92.87
2023-07-28T01:47:01.223Z,93.87
2023-07-28T01:48:54.368Z,93.41
2023-07-28T01:50:47.428Z,94.35
2023-07-28T01:52:40.474Z,94.28
2023-07-28T01:54:33.468Z,94.04
2023-07-28T01:56:26.575Z,94.53
2023-07-28T01:58:19.619Z,94.52
2023-07-28T02:00:13.234Z,94.89
2023-07-28T02:02:09.108Z,94.87
2023-07-28T02:04:02.202Z,94.71
2023-07-28T02:05:55.828Z,94.92
2023-07-28T02:07:48.893Z,95.11
2023-07-28T02:09:41.920Z,95.16
2023-07-28T02:11:34.970Z,95.23
2023-07-28T02:13:28.122Z,94.97
2023-07-28T02:15:21.175Z,94.77
2023-07-28T02:17:14.429Z,94.70
2023-07-28T02:19:07.896Z,95.02
2023-07-28T02:21:01.042Z,94.75
2023-07-28T02:22:54.139Z,95.04
2023-07-28T02:24:47.177Z,95.48
2023-07-28T02:26:40.207Z,95.90
2023-07-28T02:28:33.268Z,96.02
2023-07-28T02:30:26.505Z,96.78
2023-07-28T02:32:19.548Z,97.71
2023-07-28T02:34:12.604Z,97.87
2023-07-28T02:36:06.475Z,98.33
2023-07-28T02:37:59.744Z,98.04
2023-07-28T02:39:52.881Z,97.98
2023-07-28T02:41:46.032Z,98.39
2023-07-28T02:43:39.185Z,98.67
2023-07-28T02:45:32.240Z,99.36
2023-07-28T02:47:25.298Z,100.00
2023-07-28T02:49:18.339Z,100.00
2023-07-28T02:51:11.285Z,100.00
2023-07-28T02:53:04.335Z,100.00
2023-07-28T02:54:57.385Z,100.00
2023-07-28T02:56:50.849Z,100.00
2023-07-28T02:58:43.897Z,100.00
2023-07-28T03:00:44.542Z,100.00
2023-07-28T03:02:38.042Z,100.00
2023-07-28T03:04:31.239Z,100.00
2023-07-28T03:06:53.369Z,100.00
2023-07-28T03:08:46.526Z,100.00
2023-07-28T03:11:00.289Z,100.00
2023-07-28T03:12:53.316Z,100.00
2023-07-28T03:14:46.360Z,100.00
2023-07-28T03:16:39.719Z,100.00
2023-07-28T03:18:32.974Z,100.00
2023-07-28T03:20:26.586Z,100.00
2023-07-28T03:22:19.688Z,100.00
2023-07-28T03:24:12.741Z,100.00
2023-07-28T03:26:05.793Z,100.00
2023-07-28T03:27:58.860Z,100.00
2023-07-28T03:29:52.521Z,100.00
2023-07-28T03:31:46.214Z,100.00
2023-07-28T03:33:40.044Z,100.00
2023-07-28T03:35:33.400Z,100.00
2023-07-28T03:37:31.265Z,100.00
2023-07-28T03:39:24.311Z,100.00
2023-07-28T03:41:17.473Z,100.00
2023-07-28T03:43:10.824Z,100.00
2023-07-28T03:45:04.696Z,100.00
2023-07-28T03:46:57.758Z,100.00
2023-07-28T03:48:50.796Z,100.00
2023-07-28T03:50:43.847Z,100.00
2023-07-28T03:52:36.907Z,100.00
2023-07-28T03:54:29.949Z,100.00
2023-07-28T03:56:23.304Z,100.00
2023-07-28T03:58:16.354Z,100.00
2023-07-28T04:00:10.024Z,100.00
2023-07-28T04:02:05.835Z,100.00
2023-07-28T04:03:59.809Z,100.00
2023-07-28T04:05:53.068Z,100.00
2023-07-28T04:07:46.121Z,100.00
2023-07-28T04:09:39.170Z,100.00
2023-07-28T04:11:32.112Z,100.00
2023-07-28T04:13:25.163Z,100.00
2023-07-28T04:15:18.252Z,100.00
2023-07-28T04:17:12.901Z,100.00
2023-07-28T04:19:06.066Z,100.00
2023-07-28T04:20:59.112Z,100.00
2023-07-28T04:22:52.171Z,100.00
2023-07-28T04:24:45.316Z,100.00
2023-07-28T04:26:38.573Z,100.00
2023-07-28T04:28:31.723Z,100.00
2023-07-28T04:30:27.430Z,100.00
2023-07-28T04:32:20.918Z,100.00
2023-07-28T04:34:14.249Z,100.00
2023-07-28T04:36:32.726Z,100.00
2023-07-28T04:38:26.275Z,100.00
2023-07-28T04:40:24.436Z,100.00
2023-07-28T04:42:17.490Z,100.00
2023-07-28T04:44:12.475Z,100.00
2023-07-28T04:46:06.804Z,100.00
2023-07-28T04:48:00.186Z,100.00
2023-07-28T04:49:53.368Z,100.00
2023-07-28T04:52:05.674Z,100.00
2023-07-28T04:54:04.456Z,100.00
2023-07-28T04:55:58.632Z,100.00
2023-07-28T04:57:51.685Z,100.00
2023-07-28T04:59:45.760Z,100.00
2023-07-28T05:01:39.261Z,100.00
2023-07-28T05:03:32.677Z,100.00
2023-07-28T05:05:34.750Z,100.00
2023-07-28T05:07:30.505Z,100.00
2023-07-28T05:09:23.559Z,100.00
2023-07-28T05:11:16.758Z,100.00
2023-07-28T05:13:10.117Z,100.00
2023-07-28T05:15:03.940Z,100.00
2023-07-28T05:16:57.587Z,100.00
2023-07-28T05:19:09.249Z,100.00
2023-07-28T05:21:23.384Z,100.00
2023-07-28T05:23:16.441Z,100.00
2023-07-28T05:25:10.309Z,100.00
2023-07-28T05:27:06.322Z,100.00
2023-07-28T05:28:59.786Z,100.00
2023-07-28T05:30:53.684Z,100.00
2023-07-28T05:32:49.182Z,100.00
2023-07-28T05:35:05.475Z,100.00
2023-07-28T05:36:58.919Z,100.00
2023-07-28T05:38:54.868Z,100.00
2023-07-28T05:41:02.410Z,100.00
2023-07-28T05:42:55.578Z,100.00
2023-07-28T05:44:49.039Z,100.00
2023-07-28T05:46:42.322Z,100.00
2023-07-28T05:48:35.562Z,100.00
2023-07-28T05:50:28.705Z,100.00
2023-07-28T05:52:22.263Z,100.00
2023-07-28T05:54:18.086Z,100.00
2023-07-28T05:56:11.547Z,100.00
2023-07-28T05:58:04.632Z,100.00
2023-07-28T05:59:58.975Z,100.00
2023-07-28T06:01:52.022Z,100.00
2023-07-28T06:04:05.086Z,100.00
2023-07-28T06:06:00.757Z,100.00
2023-07-28T06:07:53.814Z,100.00
2023-07-28T06:09:46.965Z,100.00
2023-07-28T06:11:40.019Z,100.00
2023-07-28T06:13:33.778Z,100.00
2023-07-28T06:15:27.438Z,100.00
2023-07-28T06:17:20.747Z,100.00
2023-07-28T06:19:13.958Z,100.00
2023-07-28T06:21:08.847Z,100.00
2023-07-28T06:23:02.253Z,100.00
2023-07-28T06:24:55.353Z,100.00
2023-07-28T06:26:48.359Z,100.00
2023-07-28T06:28:41.709Z,100.00
2023-07-28T06:30:35.264Z,100.00
2023-07-28T06:32:29.408Z,100.00
2023-07-28T06:34:22.551Z,100.00
2023-07-28T06:36:15.702Z,100.00
2023-07-28T06:38:08.754Z,100.00
2023-07-28T06:40:01.806Z,100.00
2023-07-28T06:41:55.158Z,100.00
2023-07-28T06:43:49.923Z,100.00
2023-07-28T06:45:43.093Z,100.00
2023-07-28T06:47:36.129Z,100.00
2023-07-28T06:49:29.504Z,100.00
2023-07-28T06:51:22.567Z,100.00
2023-07-28T06:53:15.613Z,100.00
2023-07-28T06:55:09.782Z,100.00
2023-07-28T06:57:02.836Z,100.00
2023-07-28T06:59:08.593Z,100.00
2023-07-28T07:01:07.169Z,100.00
2023-07-28T07:03:00.363Z,100.00
2023-07-28T07:04:53.926Z,100.00
2023-07-28T07:06:47.154Z,100.00
2023-07-28T07:08:40.282Z,100.00
2023-07-28T07:10:33.348Z,100.00
2023-07-28T07:12:26.899Z,100.00
2023-07-28T07:14:20.459Z,100.00
2023-07-28T07:16:24.137Z,100.00
2023-07-28T07:18:17.930Z,100.00
2023-07-28T07:20:11.873Z,100.00
2023-07-28T07:22:05.155Z,100.00
2023-07-28T07:23:58.205Z,100.00
2023-07-28T07:25:53.915Z,100.00
2023-07-28T07:27:46.969Z,100.00
2023-07-28T07:29:40.855Z,100.00
2023-07-28T07:31:34.457Z,100.00
2023-07-28T07:33:28.777Z,100.00
2023-07-28T07:35:21.844Z,100.00
2023-07-28T07:37:15.089Z,100.00
2023-07-28T07:39:09.019Z,100.00
2023-07-28T07:41:03.349Z,100.00
2023-07-28T07:42:57.528Z,100.00
2023-07-28T07:44:50.578Z,100.00
2023-07-28T07:46:44.739Z,100.00
2023-07-28T07:48:37.912Z,100.00
2023-07-28T07:50:30.965Z,100.00
2023-07-28T07:52:24.015Z,100.00
2023-07-28T07:54:19.819Z,100.00
2023-07-28T07:56:13.515Z,100.00
2023-07-28T07:58:06.547Z,100.00
2023-07-28T08:00:00.378Z,100.00
2023-07-28T08:01:53.474Z,100.00
2023-07-28T08:03:46.831Z,100.00
2023-07-28T08:05:39.877Z,100.00
2023-07-28T08:07:32.827Z,100.00
2023-07-28T08:09:25.878Z,100.00
2023-07-28T08:11:19.644Z,100.00
2023-07-28T08:13:12.694Z,100.00
2023-07-28T08:15:06.320Z,100.00
2023-07-28T08:16:59.823Z,100.00
2023-07-28T08:18:52.870Z,100.00
2023-07-28T08:20:45.943Z,100.00
2023-07-28T08:22:39.515Z,100.00
2023-07-28T08:24:33.352Z,100.00
2023-07-28T08:26:26.401Z,100.00
2023-07-28T08:28:19.523Z,100.00
2023-07-28T08:30:12.913Z,100.00
2023-07-28T08:32:06.579Z,100.00
2023-07-28T08:33:59.628Z,100.00
2023-07-28T08:35:52.706Z,100.00
2023-07-28T08:37:45.835Z,100.00
2023-07-28T08:39:38.884Z,100.00
2023-07-28T08:41:32.222Z,100.00
2023-07-28T08:43:25.711Z,100.00
2023-07-28T08:45:20.552Z,100.00
2023-07-28T08:47:13.541Z,100.00
2023-07-28T08:49:07.051Z,100.00
2023-07-28T08:51:00.073Z,100.00
2023-07-28T08:52:53.410Z,100.00
2023-07-28T08:54:47.793Z,100.00
2023-07-28T08:56:41.054Z,100.00
2023-07-28T08:58:34.609Z,100.00
2023-07-28T09:00:28.523Z,100.00
2023-07-28T09:02:21.858Z,100.00
2023-07-28T09:04:14.988Z,100.00
2023-07-28T09:06:11.728Z,100.00
2023-07-28T09:08:06.233Z,100.00
2023-07-28T09:10:02.542Z,100.00
2023-07-28T09:11:55.806Z,100.00
2023-07-28T09:13:50.894Z,100.00
2023-07-28T09:15:43.944Z,100.00
2023-07-28T09:17:43.222Z,100.00
2023-07-28T09:19:36.494Z,100.00
2023-07-28T09:21:29.545Z,100.00
2023-07-28T09:23:31.330Z,99.95
2023-07-28T09:25:24.352Z,100.00
2023-07-28T09:27:25.813Z,100.00
2023-07-28T09:29:20.869Z,100.00
2023-07-28T09:31:15.700Z,100.00
2023-07-28T09:33:09.150Z,99.69
2023-07-28T09:35:15.509Z,98.85
2023-07-28T09:37:11.723Z,97.67
2023-07-28T09:39:08.311Z,98.06
2023-07-28T09:41:01.423Z,97.24
2023-07-28T09:42:56.635Z,96.78
2023-07-28T09:44:49.875Z,97.41
2023-07-28T09:46:53.981Z,97.09
2023-07-28T09:48:54.169Z,96.60
2023-07-28T09:50:47.462Z,95.92
2023-07-28T09:52:47.360Z,95.66
2023-07-28T09:54:41.853Z,95.46
2023-07-28T09:56:36.443Z,96.12
2023-07-28T09:58:34.977Z,95.12
2023-07-28T10:00:28.691Z,95.04
2023-07-28T10:02:22.605Z,94.70
2023-07-28T10:04:16.326Z,93.99
2023-07-28T10:06:09.784Z,91.32
2023-07-28T10:08:05.020Z,88.89
2023-07-28T10:09:58.602Z,88.94
2023-07-28T10:11:52.109Z,89.20
2023-07-28T10:13:47.971Z,87.09
2023-07-28T10:15:41.310Z,85.80
2023-07-28T10:17:36.016Z,86.76
2023-07-28T10:19:29.852Z,86.06
2023-07-28T10:21:22.916Z,86.79
2023-07-28T10:23:23.520Z,87.97
2023-07-28T10:25:24.430Z,87.94
2023-07-28T10:27:37.418Z,87.37
2023-07-28T10:29:38.820Z,85.76
2023-07-28T10:31:32.113Z,84.53
2023-07-28T10:33:38.056Z,83.80
2023-07-28T10:35:35.639Z,82.96
2023-07-28T10:37:28.844Z,82.47
2023-07-28T10:39:21.889Z,82.75
2023-07-28T10:41:18.426Z,83.40
2023-07-28T10:43:11.574Z,83.88
2023-07-28T10:45:05.560Z,84.93
2023-07-28T10:46:59.111Z,83.08
2023-07-28T10:48:52.108Z,83.52
2023-07-28T10:50:46.134Z,83.16
2023-07-28T10:52:43.281Z,83.60
2023-07-28T10:54:36.328Z,84.57
2023-07-28T10:56:29.581Z,85.22
2023-07-28T10:58:22.646Z,86.47
2023-07-28T11:00:22.994Z,85.47
2023-07-28T11:02:17.368Z,85.38
2023-07-28T11:04:19.330Z,83.24
2023-07-28T11:06:12.569Z,82.70
2023-07-28T11:08:08.681Z,82.98
2023-07-28T11:10:03.902Z,83.65
2023-07-28T11:11:57.047Z,84.08
2023-07-28T11:13:50.180Z,81.52
2023-07-28T11:15:43.127Z,79.81
2023-07-28T11:17:36.350Z,79.19
2023-07-28T11:19:29.439Z,79.47
2023-07-28T11:21:24.335Z,78.16
2023-07-28T11:23:19.018Z,77.90
2023-07-28T11:25:13.100Z,78.41
2023-07-28T11:27:06.394Z,77.88
2023-07-28T11:29:00.727Z,77.76
2023-07-28T11:30:54.555Z,76.73
2023-07-28T11:32:49.416Z,76.17
2023-07-28T11:34:45.003Z,75.33
2023-07-28T11:36:38.622Z,76.00
2023-07-28T11:38:33.640Z,76.33
2023-07-28T11:40:27.122Z,75.48
2023-07-28T11:42:20.274Z,75.47
2023-07-28T11:44:14.249Z,74.75
2023-07-28T11:46:37.704Z,74.86
2023-07-28T11:48:32.719Z,73.35
2023-07-28T11:50:31.185Z,73.89
2023-07-28T11:52:24.347Z,74.01
2023-07-28T11:54:23.122Z,73.30
2023-07-28T11:56:16.485Z,73.25
2023-07-28T11:58:09.635Z,71.67
2023-07-28T12:00:04.838Z,72.40
2023-07-28T12:06:28.894Z,72.59
2023-07-28T12:08:36.490Z,73.02
2023-07-28T12:21:01.724Z,76.49
2023-07-28T12:25:11.926Z,76.49
2023-07-28T12:27:20.418Z,76.86
2023-07-28T12:29:31.402Z,77.35
2023-07-28T12:31:46.005Z,78.10
2023-07-28T12:36:25.200Z,78.09
2023-07-28T12:43:04.929Z,76.17
2023-07-28T12:47:11.352Z,75.58
2023-07-28T12:49:09.841Z,76.43
2023-07-28T12:51:30.815Z,78.72
2023-07-28T12:53:33.725Z,80.95
2023-07-28T12:55:31.287Z,81.95
2023-07-28T12:57:28.343Z,83.05
2023-07-28T12:59:26.678Z,83.95
2023-07-28T13:01:26.336Z,85.02
2023-07-28T13:03:23.843Z,85.94
2023-07-28T13:05:23.111Z,86.47
2023-07-28T13:13:14.346Z,88.33
2023-07-28T13:15:08.762Z,88.85
2023-07-28T13:17:02.397Z,89.14
2023-07-28T13:18:55.449Z,89.62
2023-07-28T13:20:48.502Z,90.23
2023-07-28T13:22:41.566Z,90.49
2023-07-28T13:24:34.602Z,90.74
2023-07-28T13:26:29.878Z,91.30
2023-07-28T13:28:29.402Z,91.60
2023-07-28T13:30:22.556Z,91.65
2023-07-28T13:32:24.460Z,91.80
2023-07-28T13:34:17.933Z,92.14
2023-07-28T13:36:11.149Z,92.42
2023-07-28T13:38:04.129Z,92.50
2023-07-28T13:39:57.150Z,92.28
2023-07-28T13:41:50.284Z,92.56
2023-07-28T13:43:43.846Z,93.04
2023-07-28T13:45:46.189Z,92.98
2023-07-28T13:47:45.373Z,92.99
2023-07-28T13:49:53.440Z,92.90
2023-07-28T13:57:48.605Z,93.39
2023-07-28T13:59:41.648Z,93.29
2023-07-28T14:01:35.010Z,93.79
2023-07-28T14:03:29.581Z,93.78
2023-07-28T14:05:24.367Z,93.41
2023-07-28T14:07:17.540Z,93.40
2023-07-28T14:09:11.056Z,93.87
2023-07-28T14:11:04.108Z,93.93
2023-07-28T14:12:57.155Z,93.61
2023-07-28T14:14:51.330Z,93.68
2023-07-28T14:16:44.483Z,93.59
2023-07-28T14:18:37.737Z,93.96
2023-07-28T14:20:31.308Z,94.23
2023-07-28T14:22:24.459Z,94.31
2023-07-28T14:24:17.541Z,94.18
2023-07-28T14:26:10.769Z,94.38
2023-07-28T14:28:03.959Z,93.75
2023-07-28T14:29:57.081Z,93.74
2023-07-28T14:31:50.527Z,92.70
2023-07-28T14:33:43.692Z,92.56
2023-07-28T14:35:36.732Z,92.69
2023-07-28T14:37:29.786Z,92.25
2023-07-28T14:39:23.379Z,91.95
2023-07-28T14:41:16.499Z,91.71
2023-07-28T14:43:10.085Z,91.93
2023-07-28T14:45:03.111Z,92.37
2023-07-28T14:46:56.644Z,92.78
2023-07-28T14:48:51.259Z,92.90
2023-07-28T14:50:49.385Z,93.04
2023-07-28T14:52:48.733Z,92.94
2023-07-28T14:54:41.881Z,93.29
2023-07-28T14:56:35.135Z,93.44
2023-07-28T14:58:30.894Z,93.42
2023-07-28T15:00:24.723Z,93.34
2023-07-28T15:02:17.768Z,93.67
2023-07-28T15:04:12.615Z,93.74
2023-07-28T15:06:06.637Z,93.95
2023-07-28T15:08:01.642Z,94.16
2023-07-28T15:09:54.684Z,94.38
2023-07-28T15:11:47.630Z,94.75
2023-07-28T15:13:40.898Z,94.55
2023-07-28T15:15:34.037Z,94.41
2023-07-28T15:17:27.159Z,94.69
2023-07-28T15:19:20.491Z,94.37
2023-07-28T15:21:16.583Z,94.66
2023-07-28T15:23:10.853Z,94.37
2023-07-28T15:25:04.835Z,94.43
2023-07-28T15:26:57.973Z,94.43
2023-07-28T15:28:51.023Z,93.77
2023-07-28T15:30:46.679Z,93.77
2023-07-28T15:32:40.918Z,94.02
2023-07-28T15:34:36.218Z,93.38
2023-07-28T15:36:29.265Z,92.90
2023-07-28T15:38:22.728Z,92.54
2023-07-28T15:40:15.802Z,92.39
2023-07-28T15:42:08.832Z,92.65
2023-07-28T15:44:02.185Z,92.92
2023-07-28T15:45:56.437Z,93.03
2023-07-28T15:47:49.969Z,92.74
2023-07-28T15:49:43.293Z,92.69
2023-07-28T15:51:38.950Z,92.83
2023-07-28T15:53:36.246Z,92.74
2023-07-28T16:05:15.560Z,93.62
2023-07-28T16:07:11.979Z,93.81
2023-07-28T16:16:29.921Z,94.35
2023-07-28T16:18:23.115Z,94.07
2023-07-28T16:20:16.163Z,94.31
2023-07-28T16:22:09.211Z,94.28
2023-07-28T16:24:02.272Z,94.02
2023-07-28T16:25:55.315Z,94.21
2023-07-28T16:27:48.258Z,93.98
2023-07-28T16:29:41.788Z,93.74
2023-07-28T16:31:35.491Z,93.90
2023-07-28T16:33:28.746Z,93.86
2023-07-28T16:35:22.242Z,94.03
2023-07-28T16:37:15.869Z,93.98
2023-07-28T16:39:08.920Z,93.45
2023-07-28T16:41:01.967Z,93.55
2023-07-28T16:42:55.121Z,93.41
2023-07-28T16:44:48.531Z,93.05
2023-07-28T16:46:41.530Z,92.82
2023-07-28T16:48:34.529Z,92.66
2023-07-28T16:50:27.531Z,92.89
2023-07-28T16:52:22.030Z,92.19
2023-07-28T16:54:15.280Z,92.42
2023-07-28T16:56:08.322Z,92.34
2023-07-28T16:58:01.516Z,91.91
2023-07-28T16:59:54.627Z,91.99
2023-07-28T17:01:47.706Z,92.11
2023-07-28T17:03:41.067Z,91.82
2023-07-28T17:05:34.089Z,91.62
2023-07-28T17:07:27.342Z,91.33
2023-07-28T17:09:20.799Z,91.25
2023-07-28T17:11:13.859Z,90.99
2023-07-28T17:13:06.899Z,90.98
2023-07-28T17:14:59.948Z,90.91
2023-07-28T17:16:52.945Z,90.94
2023-07-28T17:18:48.267Z,90.62
2023-07-28T17:20:41.916Z,90.84
2023-07-28T17:22:35.936Z,90.97
2023-07-28T17:24:28.988Z,90.96
2023-07-28T17:26:22.090Z,91.14
2023-07-28T17:28:15.234Z,91.16
2023-07-28T17:30:09.026Z,90.96
2023-07-28T17:32:02.172Z,91.44
2023-07-28T17:33:55.270Z,91.66
2023-07-28T17:35:48.328Z,92.00
2023-07-28T17:37:41.366Z,91.58
2023-07-28T17:39:34.945Z,91.44
2023-07-28T17:41:27.977Z,91.65
2023-07-28T17:43:21.363Z,91.58
2023-07-28T17:45:14.393Z,91.93
2023-07-28T17:47:08.257Z,91.82
2023-07-28T17:49:01.209Z,91.88
2023-07-28T17:50:55.105Z,91.93
2023-07-28T17:52:50.682Z,92.00
2023-07-28T17:54:43.750Z,92.10
2023-07-28T17:56:36.791Z,92.12
2023-07-28T17:58:30.329Z,92.09
2023-07-28T18:00:23.611Z,92.35
2023-07-28T18:02:16.863Z,92.12
2023-07-28T18:04:11.395Z,92.28
2023-07-28T18:06:04.499Z,92.33
2023-07-28T18:07:57.862Z,92.39
2023-07-28T18:09:52.923Z,92.15
2023-07-28T18:11:46.212Z,92.12
2023-07-28T18:13:39.364Z,92.30
2023-07-28T18:15:32.319Z,92.11
2023-07-28T18:17:25.367Z,91.94
2023-07-28T18:19:18.378Z,92.24
2023-07-28T18:21:11.365Z,92.30
2023-07-28T18:23:04.514Z,92.39
2023-07-28T18:24:57.468Z,92.60
2023-07-28T18:26:50.513Z,92.42
2023-07-28T18:28:43.690Z,92.52
2023-07-28T18:30:36.840Z,92.34
2023-07-28T18:32:29.890Z,92.22
2023-07-28T18:34:23.132Z,92.24
2023-07-28T18:36:16.283Z,92.47
2023-07-28T18:38:09.332Z,92.64
2023-07-28T18:40:03.845Z,92.65
2023-07-28T18:41:56.967Z,92.73
2023-07-28T18:43:49.983Z,92.81
2023-07-28T18:45:43.479Z,92.82
2023-07-28T18:47:37.424Z,92.80
2023-07-28T18:49:30.818Z,92.76
2023-07-28T18:51:23.859Z,92.79
2023-07-28T18:53:18.489Z,92.89
2023-07-28T18:55:11.656Z,93.05
2023-07-28T18:57:05.935Z,93.14
2023-07-28T18:58:58.974Z,93.27
2023-07-28T19:00:53.714Z,93.32
2023-07-28T19:02:46.834Z,93.49
2023-07-28T19:04:42.277Z,93.88
2023-07-28T19:06:35.308Z,93.70
2023-07-28T19:08:28.202Z,93.84
2023-07-28T19:10:21.927Z,93.90
2023-07-28T19:12:15.418Z,94.07
2023-07-28T19:14:09.294Z,94.31
2023-07-28T19:16:05.294Z,94.50
2023-07-28T19:18:10.582Z,94.67
2023-07-28T19:20:08.670Z,94.58
2023-07-28T19:22:01.754Z,94.84
2023-07-28T19:23:54.798Z,95.03
2023-07-28T19:25:47.955Z,95.14
2023-07-28T19:27:41.336Z,95.33
2023-07-28T19:29:34.676Z,95.17
2023-07-28T19:31:27.758Z,95.38
2023-07-28T19:33:21.076Z,95.65
2023-07-28T19:35:14.332Z,95.71
2023-07-28T19:37:07.583Z,95.83
2023-07-28T19:39:00.636Z,95.86
2023-07-28T19:40:54.406Z,95.93
2023-07-28T19:42:48.170Z,96.02
2023-07-28T19:44:42.558Z,95.97
2023-07-28T19:46:36.253Z,95.97
2023-07-28T19:48:29.369Z,96.09
2023-07-28T19:50:35.109Z,96.21
2023-07-28T19:52:32.980Z,96.27
2023-07-28T19:54:26.698Z,96.27
2023-07-28T19:56:20.559Z,96.49
2023-07-28T19:58:13.992Z,96.50
2023-07-28T20:00:10.721Z,96.51
2023-07-28T20:02:04.176Z,96.31
2023-07-28T20:04:00.462Z,96.40
2023-07-28T20:05:56.017Z,96.25
2023-07-28T20:07:52.299Z,96.11
2023-07-28T20:09:50.178Z,96.18
2023-07-28T20:11:46.984Z,96.27
2023-07-28T20:13:44.336Z,96.21
2023-07-28T20:15:42.511Z,96.25
2023-07-28T20:17:47.255Z,96.30
2023-07-28T20:19:46.251Z,96.24
2023-07-28T20:21:42.247Z,96.31
2023-07-28T20:23:37.255Z,96.28
2023-07-28T20:25:32.802Z,96.29
2023-07-28T20:27:26.999Z,96.15
2023-07-28T20:29:22.070Z,96.19
2023-07-28T20:31:16.547Z,96.34
2023-07-28T20:33:13.311Z,96.20
2023-07-28T20:35:09.579Z,96.21
2023-07-28T20:37:05.186Z,96.23
2023-07-28T20:39:01.480Z,96.27
2023-07-28T20:40:55.130Z,96.19
2023-07-28T20:42:48.707Z,96.60
2023-07-28T20:44:41.912Z,96.66
2023-07-28T20:46:36.052Z,96.82
2023-07-28T20:48:30.031Z,96.71
2023-07-28T20:50:23.564Z,96.86
2023-07-28T20:52:17.010Z,96.92
2023-07-28T20:54:10.373Z,96.90
2023-07-28T20:56:04.491Z,97.09
2023-07-28T20:58:03.057Z,97.03
2023-07-28T20:59:56.842Z,97.21
2023-07-28T21:01:50.409Z,97.23
2023-07-28T21:03:44.177Z,97.31
2023-07-28T21:05:38.617Z,97.41
2023-07-28T21:07:33.301Z,97.38
2023-07-28T21:09:26.858Z,97.24
2023-07-28T21:11:20.364Z,97.31
2023-07-28T21:13:17.581Z,97.26
2023-07-28T21:15:11.827Z,97.27
2023-07-28T21:17:07.200Z,97.21
2023-07-28T21:19:01.126Z,97.24
2023-07-28T21:20:56.134Z,97.17
2023-07-28T21:22:50.196Z,97.36
2023-07-28T21:24:44.017Z,97.50
2023-07-28T21:26:38.280Z,97.45
2023-07-28T21:28:33.347Z,97.53
2023-07-28T21:30:27.108Z,97.73
2023-07-28T21:32:20.464Z,97.87
2023-07-28T21:34:16.640Z,97.95
2023-07-28T21:36:10.300Z,97.87
2023-07-28T21:38:04.063Z,97.83
2023-07-28T21:39:58.857Z,97.81
2023-07-28T21:41:55.081Z,97.85
2023-07-28T21:43:48.849Z,97.89
2023-07-28T21:45:43.117Z,97.78
2023-07-28T21:47:36.662Z,97.73
2023-07-28T21:49:29.706Z,97.76
2023-07-28T21:51:22.850Z,98.15
2023-07-28T21:53:15.909Z,98.22
2023-07-28T21:55:12.118Z,98.30
2023-07-28T21:57:05.690Z,98.43
2023-07-28T21:58:59.629Z,98.61
2023-07-28T22:00:53.985Z,98.66
2023-07-28T22:02:47.253Z,98.81
2023-07-28T22:04:40.296Z,99.04
2023-07-28T22:06:33.303Z,99.16
2023-07-28T22:08:28.025Z,99.35
2023-07-28T22:10:25.177Z,99.43
2023-07-28T22:12:18.288Z,99.59
2023-07-28T22:14:11.483Z,99.75
2023-07-28T22:16:04.706Z,99.87
2023-07-28T22:17:58.420Z,99.84
2023-07-28T22:19:51.613Z,99.99
2023-07-28T22:21:44.664Z,100.00
2023-07-28T22:23:37.717Z,100.00
2023-07-28T22:25:30.663Z,100.00
2023-07-28T22:27:23.815Z,100.00
2023-07-28T22:29:16.769Z,99.99
2023-07-28T22:31:09.830Z,99.94
2023-07-28T22:33:02.923Z,99.99
2023-07-28T22:34:56.123Z,100.00
2023-07-28T22:36:49.138Z,100.00
2023-07-28T22:38:42.121Z,100.00
2023-07-28T22:40:35.103Z,100.00
2023-07-28T22:42:29.495Z,100.00
2023-07-28T22:44:22.653Z,100.00
2023-07-28T22:46:15.694Z,100.00
2023-07-28T22:48:08.962Z,100.00
2023-07-28T22:50:02.609Z,100.00
2023-07-28T22:51:55.833Z,100.00
2023-07-28T22:53:48.884Z,100.00
2023-07-28T22:55:42.134Z,100.00
2023-07-28T22:57:35.180Z,100.00
2023-07-28T22:59:28.446Z,100.00
2023-07-28T23:01:21.532Z,100.00
2023-07-28T23:03:14.738Z,100.00
2023-07-28T23:05:10.638Z,100.00
2023-07-28T23:07:04.020Z,100.00
2023-07-28T23:08:57.068Z,100.00
2023-07-28T23:10:50.125Z,100.00
2023-07-28T23:12:45.599Z,100.00
2023-07-28T23:14:39.353Z,100.00
2023-07-28T23:16:32.493Z,100.00
2023-07-28T23:18:25.908Z,100.00
2023-07-28T23:20:18.966Z,100.00
2023-07-28T23:22:11.907Z,100.00
2023-07-28T23:24:05.312Z,100.00
2023-07-28T23:25:58.424Z,100.00
2023-07-28T23:27:51.485Z,100.00
2023-07-28T23:29:44.629Z,100.00
2023-07-28T23:31:38.087Z,100.00
2023-07-28T23:33:32.711Z,100.00
2023-07-28T23:35:25.717Z,100.00
2023-07-28T23:37:18.771Z,100.00
2023-07-28T23:39:11.828Z,100.00
2023-07-28T23:41:06.205Z,100.00
2023-07-28T23:42:59.260Z,100.00
2023-07-28T23:44:52.302Z,100.00
2023-07-28T23:46:45.418Z,100.00
2023-07-28T23:48:40.147Z,100.00
2023-07-28T23:50:33.034Z,100.00
2023-07-28T23:52:27.063Z,100.00
2023-07-28T23:54:20.063Z,100.00
2023-07-28T23:56:13.112Z,100.00
2023-07-28T23:58:06.113Z,100.00
2023-07-28T23:59:59.605Z,100.00
